sensor_id;sensor_type;location;lat;lon;timestamp;pressure;altitude;pressure_sealevel;temperature;humidity
4199;BME280;2113;50.946;14.610;2023-07-28T00:00:10;51949.81;;;-141.55;83.71
4199;BME280;2113;50.946;14.610;2023-07-28T00:02:41;51975.72;;;-141.55;83.66
4199;BME280;2113;50.946;14.610;2023-07-28T00:05:10;51955.78;;;-141.55;84.08
4199;BME280;2113;50.946;14.610;2023-07-28T00:07:38;51939.84;;;-141.55;84.10
4199;BME280;2113;50.946;14.610;2023-07-28T00:10:06;51959.78;;;-141.55;84.46
4199;BME280;2113;50.946;14.610;2023-07-28T00:12:34;51969.75;;;-141.55;84.29
4199;BME280;2113;50.946;14.610;2023-07-28T00:15:03;51945.81;;;-141.55;84.35
4199;BME280;2113;50.946;14.610;2023-07-28T00:17:31;51951.78;;;-141.55;84.49
4199;BME280;2113;50.946;14.610;2023-07-28T00:20:01;51963.75;;;-141.55;84.22
4199;BME280;2113;50.946;14.610;2023-07-28T00:22:29;51945.81;;;-141.55;84.00
4199;BME280;2113;50.946;14.610;2023-07-28T00:24:57;51951.78;;;-141.55;84.36
4199;BME280;2113;50.946;14.610;2023-07-28T00:27:25;51983.72;;;-141.55;84.46
4199;BME280;2113;50.946;14.610;2023-07-28T00:29:54;51961.78;;;-141.55;84.20
4199;BME280;2113;50.946;14.610;2023-07-28T00:32:22;51959.78;;;-141.55;84.10
4199;BME280;2113;50.946;14.610;2023-07-28T00:34:50;51975.72;;;-141.55;84.47
4199;BME280;2113;50.946;14.610;2023-07-28T00:37:20;51991.69;;;-141.55;84.41
4199;BME280;2113;50.946;14.610;2023-07-28T00:39:48;51933.84;;;-141.55;84.42
4199;BME280;2113;50.946;14.610;2023-07-28T00:42:16;51953.78;;;-141.55;84.24
4199;BME280;2113;50.946;14.610;2023-07-28T00:44:44;51945.81;;;-141.55;84.21
4199;BME280;2113;50.946;14.610;2023-07-28T00:47:13;51987.69;;;-141.55;84.01
4199;BME280;2113;50.946;14.610;2023-07-28T00:49:41;51995.66;;;-141.55;84.15
4199;BME280;2113;50.946;14.610;2023-07-28T00:52:09;51941.81;;;-141.55;84.35
4199;BME280;2113;50.946;14.610;2023-07-28T00:54:39;51977.72;;;-141.55;84.22
4199;BME280;2113;50.946;14.610;2023-07-28T00:57:07;51973.72;;;-141.55;84.31
4199;BME280;2113;50.946;14.610;2023-07-28T00:59:36;51991.69;;;-141.55;84.17
4199;BME280;2113;50.946;14.610;2023-07-28T01:02:04;51921.88;;;-141.55;84.23
4199;BME280;2113;50.946;14.610;2023-07-28T01:04:32;51955.78;;;-141.55;84.29
4199;BME280;2113;50.946;14.610;2023-07-28T01:07:04;51943.81;;;-141.55;84.26
4199;BME280;2113;50.946;14.610;2023-07-28T01:09:39;51975.72;;;-141.55;84.43
4199;BME280;2113;50.946;14.610;2023-07-28T01:12:09;51989.69;;;-141.55;84.59
4199;BME280;2113;50.946;14.610;2023-07-28T01:14:37;51947.81;;;-141.55;84.48
4199;BME280;2113;50.946;14.610;2023-07-28T01:17:05;51953.78;;;-141.55;84.31
4199;BME280;2113;50.946;14.610;2023-07-28T01:19:33;51953.78;;;-141.55;84.62
4199;BME280;2113;50.946;14.610;2023-07-28T01:22:20;51953.78;;;-141.55;84.51
4199;BME280;2113;50.946;14.610;2023-07-28T01:25:02;51957.78;;;-141.55;84.65
4199;BME280;2113;50.946;14.610;2023-07-28T01:27:36;51931.84;;;-141.55;84.63
4199;BME280;2113;50.946;14.610;2023-07-28T01:30:09;51953.78;;;-141.55;84.67
4199;BME280;2113;50.946;14.610;2023-07-28T01:32:37;51987.69;;;-141.55;85.18
4199;BME280;2113;50.946;14.610;2023-07-28T01:35:07;51985.69;;;-141.55;85.09
4199;BME280;2113;50.946;14.610;2023-07-28T01:37:35;51967.75;;;-141.55;85.36
4199;BME280;2113;50.946;14.610;2023-07-28T01:40:05;51965.75;;;-141.55;85.31
4199;BME280;2113;50.946;14.610;2023-07-28T01:42:33;51981.72;;;-141.55;85.67
4199;BME280;2113;50.946;14.610;2023-07-28T01:45:03;51979.72;;;-141.55;85.66
4199;BME280;2113;50.946;14.610;2023-07-28T01:47:31;51951.78;;;-141.55;85.70
4199;BME280;2113;50.946;14.610;2023-07-28T01:50:00;52011.63;;;-141.55;85.89
4199;BME280;2113;50.946;14.610;2023-07-28T01:52:28;52001.66;;;-141.55;85.75
4199;BME280;2113;50.946;14.610;2023-07-28T01:54:56;51993.69;;;-141.55;85.80
4199;BME280;2113;50.946;14.610;2023-07-28T01:57:24;51989.69;;;-141.55;85.59
4199;BME280;2113;50.946;14.610;2023-07-28T01:59:54;51965.75;;;-141.55;86.08
4199;BME280;2113;50.946;14.610;2023-07-28T02:02:23;51977.72;;;-141.55;86.07
4199;BME280;2113;50.946;14.610;2023-07-28T02:04:52;51945.81;;;-141.55;86.16
4199;BME280;2113;50.946;14.610;2023-07-28T02:07:20;51981.72;;;-141.55;86.44
4199;BME280;2113;50.946;14.610;2023-07-28T02:09:48;51977.72;;;-141.55;86.69
4199;BME280;2113;50.946;14.610;2023-07-28T02:12:16;51957.78;;;-141.55;86.41
4199;BME280;2113;50.946;14.610;2023-07-28T02:14:44;51937.84;;;-141.55;86.25
4199;BME280;2113;50.946;14.610;2023-07-28T02:17:12;51961.78;;;-141.55;85.95
4199;BME280;2113;50.946;14.610;2023-07-28T02:19:42;51981.72;;;-141.55;85.86
4199;BME280;2113;50.946;14.610;2023-07-28T02:22:11;51935.84;;;-141.55;85.67
4199;BME280;2113;50.946;14.610;2023-07-28T02:24:39;51945.81;;;-141.55;85.92
4199;BME280;2113;50.946;14.610;2023-07-28T02:27:08;51979.72;;;-141.55;85.84
4199;BME280;2113;50.946;14.610;2023-07-28T02:29:36;51967.75;;;-141.55;85.66
4199;BME280;2113;50.946;14.610;2023-07-28T02:32:04;52005.63;;;-141.55;85.83
4199;BME280;2113;50.946;14.610;2023-07-28T02:34:33;51993.69;;;-141.55;86.07
4199;BME280;2113;50.946;14.610;2023-07-28T02:37:02;51967.75;;;-141.55;86.17
4199;BME280;2113;50.946;14.610;2023-07-28T02:39:31;51995.66;;;-141.55;86.12
4199;BME280;2113;50.946;14.610;2023-07-28T02:41:59;51965.75;;;-141.55;86.10
4199;BME280;2113;50.946;14.610;2023-07-28T02:44:27;51931.84;;;-141.55;85.86
4199;BME280;2113;50.946;14.610;2023-07-28T02:46:55;51963.75;;;-141.55;85.87
4199;BME280;2113;50.946;14.610;2023-07-28T02:49:23;51951.78;;;-141.55;85.89
4199;BME280;2113;50.946;14.610;2023-07-28T02:51:52;51989.69;;;-141.55;86.01
4199;BME280;2113;50.946;14.610;2023-07-28T02:54:21;51987.69;;;-141.55;86.02
4199;BME280;2113;50.946;14.610;2023-07-28T02:56:51;51981.72;;;-141.55;85.83
4199;BME280;2113;50.946;14.610;2023-07-28T02:59:21;51981.72;;;-141.55;86.00
4199;BME280;2113;50.946;14.610;2023-07-28T03:02:29;51989.69;;;-141.55;86.01
4199;BME280;2113;50.946;14.610;2023-07-28T03:04:59;51981.72;;;-141.55;85.81
4199;BME280;2113;50.946;14.610;2023-07-28T03:07:36;51977.72;;;-141.55;85.46
4199;BME280;2113;50.946;14.610;2023-07-28T03:10:09;51983.72;;;-141.55;85.59
4199;BME280;2113;50.946;14.610;2023-07-28T03:12:43;51977.72;;;-141.55;85.54
4199;BME280;2113;50.946;14.610;2023-07-28T03:15:11;51963.75;;;-141.55;85.78
4199;BME280;2113;50.946;14.610;2023-07-28T03:17:39;52005.63;;;-141.55;85.61
4199;BME280;2113;50.946;14.610;2023-07-28T03:20:09;52003.66;;;-141.55;85.98
4199;BME280;2113;50.946;14.610;2023-07-28T03:22:37;52003.66;;;-141.55;85.66
4199;BME280;2113;50.946;14.610;2023-07-28T03:25:08;51983.72;;;-141.55;85.80
4199;BME280;2113;50.946;14.610;2023-07-28T03:27:36;51985.69;;;-141.55;85.81
4199;BME280;2113;50.946;14.610;2023-07-28T03:30:05;51957.78;;;-141.55;86.09
4199;BME280;2113;50.946;14.610;2023-07-28T03:32:37;51977.72;;;-141.55;86.04
4199;BME280;2113;50.946;14.610;2023-07-28T03:35:07;51955.78;;;-141.55;85.81
4199;BME280;2113;50.946;14.610;2023-07-28T03:37:41;52011.63;;;-141.55;85.69
4199;BME280;2113;50.946;14.610;2023-07-28T03:40:11;51961.78;;;-141.55;85.84
4199;BME280;2113;50.946;14.610;2023-07-28T03:42:46;51975.72;;;-141.55;85.85
4199;BME280;2113;50.946;14.610;2023-07-28T03:45:16;51953.78;;;-141.55;85.99
4199;BME280;2113;50.946;14.610;2023-07-28T03:47:44;51979.72;;;-141.55;85.86
4199;BME280;2113;50.946;14.610;2023-07-28T03:50:13;51933.84;;;-141.55;85.93
4199;BME280;2113;50.946;14.610;2023-07-28T03:52:41;52017.59;;;-141.55;86.07
4199;BME280;2113;50.946;14.610;2023-07-28T03:55:10;51953.78;;;-141.55;85.83
4199;BME280;2113;50.946;14.610;2023-07-28T03:57:39;51983.72;;;-141.55;85.73
4199;BME280;2113;50.946;14.610;2023-07-28T04:00:08;51967.75;;;-141.55;85.64
4199;BME280;2113;50.946;14.610;2023-07-28T04:02:39;51985.69;;;-141.55;85.60
4199;BME280;2113;50.946;14.610;2023-07-28T04:05:07;51989.69;;;-141.55;85.49
4199;BME280;2113;50.946;14.610;2023-07-28T04:07:37;51959.78;;;-141.55;85.57
4199;BME280;2113;50.946;14.610;2023-07-28T04:10:06;51965.75;;;-141.55;85.66
4199;BME280;2113;50.946;14.610;2023-07-28T04:12:36;51953.78;;;-141.55;85.36
4199;BME280;2113;50.946;14.610;2023-07-28T04:15:05;51959.78;;;-141.55;85.36
4199;BME280;2113;50.946;14.610;2023-07-28T04:17:35;51981.72;;;-141.55;84.73
4199;BME280;2113;50.946;14.610;2023-07-28T04:20:04;51955.78;;;-141.55;84.66
4199;BME280;2113;50.946;14.610;2023-07-28T04:22:32;52017.59;;;-141.55;84.64
4199;BME280;2113;50.946;14.610;2023-07-28T04:25:01;51953.78;;;-141.55;84.36
4199;BME280;2113;50.946;14.610;2023-07-28T04:27:30;51945.81;;;-141.55;84.46
4199;BME280;2113;50.946;14.610;2023-07-28T04:30:03;51995.66;;;-141.55;84.71
4199;BME280;2113;50.946;14.610;2023-07-28T04:32:31;51981.72;;;-141.55;84.81
4199;BME280;2113;50.946;14.610;2023-07-28T04:35:06;51999.66;;;-141.55;84.55
4199;BME280;2113;50.946;14.610;2023-07-28T04:37:49;52013.63;;;-141.55;84.50
4199;BME280;2113;50.946;14.610;2023-07-28T04:40:37;51975.72;;;-141.55;84.50
4199;BME280;2113;50.946;14.610;2023-07-28T04:43:06;51955.78;;;-141.55;84.33
4199;BME280;2113;50.946;14.610;2023-07-28T04:45:36;51983.72;;;-141.55;84.76
4199;BME280;2113;50.946;14.610;2023-07-28T04:48:11;51937.84;;;-141.55;84.52
4199;BME280;2113;50.946;14.610;2023-07-28T04:50:39;51945.81;;;-141.55;84.17
4199;BME280;2113;50.946;14.610;2023-07-28T04:53:26;51987.69;;;-141.55;84.20
4199;BME280;2113;50.946;14.610;2023-07-28T04:56:04;51997.66;;;-141.55;84.37
4199;BME280;2113;50.946;14.610;2023-07-28T04:58:32;51933.84;;;-141.55;84.34
4199;BME280;2113;50.946;14.610;2023-07-28T05:01:02;51941.81;;;-141.55;83.87
4199;BME280;2113;50.946;14.610;2023-07-28T05:03:32;51959.78;;;-141.55;83.46
4199;BME280;2113;50.946;14.610;2023-07-28T05:06:15;51985.69;;;-141.55;83.34
4199;BME280;2113;50.946;14.610;2023-07-28T05:08:43;51957.78;;;-141.55;83.29
4199;BME280;2113;50.946;14.610;2023-07-28T05:11:15;51919.88;;;-141.55;83.14
4199;BME280;2113;50.946;14.610;2023-07-28T05:13:43;51965.75;;;-141.55;83.11
4199;BME280;2113;50.946;14.610;2023-07-28T05:16:12;51961.78;;;-141.55;82.62
4199;BME280;2113;50.946;14.610;2023-07-28T05:18:59;51969.75;;;-141.55;82.63
4199;BME280;2113;50.946;14.610;2023-07-28T05:21:48;51925.88;;;-141.55;81.76
4199;BME280;2113;50.946;14.610;2023-07-28T05:24:19;51931.84;;;-141.55;81.80
4199;BME280;2113;50.946;14.610;2023-07-28T05:26:47;51985.69;;;-141.55;81.98
4199;BME280;2113;50.946;14.610;2023-07-28T05:29:15;51951.78;;;-141.55;81.89
4199;BME280;2113;50.946;14.610;2023-07-28T05:31:47;51979.72;;;-141.55;81.75
4199;BME280;2113;50.946;14.610;2023-07-28T05:34:28;51963.75;;;-141.55;81.40
4199;BME280;2113;50.946;14.610;2023-07-28T05:36:56;51995.66;;;-141.55;81.33
4199;BME280;2113;50.946;14.610;2023-07-28T05:39:27;51951.78;;;-141.55;81.39
4199;BME280;2113;50.946;14.610;2023-07-28T05:41:56;51957.78;;;-141.55;81.46
4199;BME280;2113;50.946;14.610;2023-07-28T05:44:24;51963.75;;;-141.55;81.42
4199;BME280;2113;50.946;14.610;2023-07-28T05:46:53;51975.72;;;-141.55;81.87
4199;BME280;2113;50.946;14.610;2023-07-28T05:49:22;51967.75;;;-141.55;81.63
4199;BME280;2113;50.946;14.610;2023-07-28T05:51:50;51963.75;;;-141.55;81.70
4199;BME280;2113;50.946;14.610;2023-07-28T05:54:18;51993.69;;;-141.55;81.98
4199;BME280;2113;50.946;14.610;2023-07-28T05:56:47;51979.72;;;-141.55;81.71
4199;BME280;2113;50.946;14.610;2023-07-28T05:59:15;51969.75;;;-141.55;81.86
4199;BME280;2113;50.946;14.610;2023-07-28T06:01:44;51927.88;;;-141.55;81.93
4199;BME280;2113;50.946;14.610;2023-07-28T06:04:20;51955.78;;;-141.55;81.45
4199;BME280;2113;50.946;14.610;2023-07-28T06:06:51;51951.78;;;-141.55;81.27
4199;BME280;2113;50.946;14.610;2023-07-28T06:09:20;51953.78;;;-141.55;81.59
4199;BME280;2113;50.946;14.610;2023-07-28T06:11:49;51981.72;;;-141.55;81.46
4199;BME280;2113;50.946;14.610;2023-07-28T06:14:17;51949.81;;;-141.55;81.46
4199;BME280;2113;50.946;14.610;2023-07-28T06:16:46;51955.78;;;-141.55;81.49
4199;BME280;2113;50.946;14.610;2023-07-28T06:19:15;51971.75;;;-141.55;81.36
4199;BME280;2113;50.946;14.610;2023-07-28T06:21:45;51967.75;;;-141.55;81.57
4199;BME280;2113;50.946;14.610;2023-07-28T06:24:13;51939.84;;;-141.55;81.34
4199;BME280;2113;50.946;14.610;2023-07-28T06:26:42;51963.75;;;-141.55;80.82
4199;BME280;2113;50.946;14.610;2023-07-28T06:29:10;51973.72;;;-141.55;81.00
4199;BME280;2113;50.946;14.610;2023-07-28T06:31:38;51957.78;;;-141.55;81.45
4199;BME280;2113;50.946;14.610;2023-07-28T06:34:07;51935.84;;;-141.55;80.98
4199;BME280;2113;50.946;14.610;2023-07-28T06:36:35;51963.75;;;-141.55;80.83
4199;BME280;2113;50.946;14.610;2023-07-28T06:39:05;51959.78;;;-141.55;80.54
4199;BME280;2113;50.946;14.610;2023-07-28T06:41:33;51991.69;;;-141.55;80.71
4199;BME280;2113;50.946;14.610;2023-07-28T06:44:07;51933.84;;;-141.55;80.73
4199;BME280;2113;50.946;14.610;2023-07-28T06:46:36;51957.78;;;-141.55;80.43
4199;BME280;2113;50.946;14.610;2023-07-28T06:49:05;51893.97;;;-141.55;80.32
4199;BME280;2113;50.946;14.610;2023-07-28T06:51:33;51977.72;;;-141.55;80.64
4199;BME280;2113;50.946;14.610;2023-07-28T06:54:02;51945.81;;;-141.55;79.96
4199;BME280;2113;50.946;14.610;2023-07-28T06:56:32;51921.88;;;-141.55;79.39
4199;BME280;2113;50.946;14.610;2023-07-28T06:59:01;51943.81;;;-141.55;79.19
4199;BME280;2113;50.946;14.610;2023-07-28T07:01:43;51953.78;;;-141.55;79.68
4199;BME280;2113;50.946;14.610;2023-07-28T07:04:11;51989.69;;;-141.55;79.44
4199;BME280;2113;50.946;14.610;2023-07-28T07:06:39;51953.78;;;-141.55;79.45
4199;BME280;2113;50.946;14.610;2023-07-28T07:09:08;51949.81;;;-141.55;79.24
4199;BME280;2113;50.946;14.610;2023-07-28T07:11:37;51949.81;;;-141.55;79.06
4199;BME280;2113;50.946;14.610;2023-07-28T07:14:05;51917.91;;;-141.55;79.37
4199;BME280;2113;50.946;14.610;2023-07-28T07:16:34;51929.88;;;-141.55;79.10
4199;BME280;2113;50.946;14.610;2023-07-28T07:19:02;51921.88;;;-141.55;78.71
4199;BME280;2113;50.946;14.610;2023-07-28T07:21:31;51891.97;;;-141.55;77.78
4199;BME280;2113;50.946;14.610;2023-07-28T07:24:02;51947.81;;;-141.55;77.33
4199;BME280;2113;50.946;14.610;2023-07-28T07:26:30;51941.81;;;-141.55;76.47
4199;BME280;2113;50.946;14.610;2023-07-28T07:29:00;51933.84;;;-141.55;76.52
4199;BME280;2113;50.946;14.610;2023-07-28T07:31:29;51878.00;;;-141.55;74.82
4199;BME280;2113;50.946;14.610;2023-07-28T07:33:58;51891.97;;;-141.55;73.35
4199;BME280;2113;50.946;14.610;2023-07-28T07:36:26;51895.97;;;-141.55;72.08
4199;BME280;2113;50.946;14.610;2023-07-28T07:38:54;51909.91;;;-141.55;69.25
4199;BME280;2113;50.946;14.610;2023-07-28T07:41:23;51818.19;;;-141.55;65.25
4199;BME280;2113;50.946;14.610;2023-07-28T07:43:53;51840.13;;;-141.55;65.21
4199;BME280;2113;50.946;14.610;2023-07-28T07:46:23;51840.13;;;-141.55;63.46
4199;BME280;2113;50.946;14.610;2023-07-28T07:48:51;51746.41;;;-141.55;60.36
4199;BME280;2113;50.946;14.610;2023-07-28T07:51:20;51698.53;;;-141.55;54.20
4199;BME280;2113;50.946;14.610;2023-07-28T07:53:48;51728.44;;;-141.55;55.79
4199;BME280;2113;50.946;14.610;2023-07-28T07:56:16;51788.28;;;-141.55;58.88
4199;BME280;2113;50.946;14.610;2023-07-28T07:58:44;51812.22;;;-141.55;63.38
4199;BME280;2113;50.946;14.610;2023-07-28T08:01:13;51856.06;;;-141.55;63.67
4199;BME280;2113;50.946;14.610;2023-07-28T08:03:42;51866.03;;;-141.55;65.05
4199;BME280;2113;50.946;14.610;2023-07-28T08:06:10;51864.06;;;-141.55;65.20
4199;BME280;2113;50.946;14.610;2023-07-28T08:08:39;51848.09;;;-141.55;65.08
4199;BME280;2113;50.946;14.610;2023-07-28T08:11:10;51856.06;;;-141.55;66.22
4199;BME280;2113;50.946;14.610;2023-07-28T08:13:39;51891.97;;;-141.55;67.40
4199;BME280;2113;50.946;14.610;2023-07-28T08:16:07;51913.91;;;-141.55;69.70
4199;BME280;2113;50.946;14.610;2023-07-28T08:18:35;51911.91;;;-141.55;70.64
4199;BME280;2113;50.946;14.610;2023-07-28T08:21:05;51915.91;;;-141.55;70.56
4199;BME280;2113;50.946;14.610;2023-07-28T08:23:33;51941.81;;;-141.55;69.15
4199;BME280;2113;50.946;14.610;2023-07-28T08:26:01;51907.94;;;-141.55;70.03
4199;BME280;2113;50.946;14.610;2023-07-28T08:28:30;51893.97;;;-141.55;69.82
4199;BME280;2113;50.946;14.610;2023-07-28T08:31:00;51917.91;;;-141.55;69.56
4199;BME280;2113;50.946;14.610;2023-07-28T08:33:28;51917.91;;;-141.55;70.23
4199;BME280;2113;50.946;14.610;2023-07-28T08:35:56;51901.94;;;-141.55;69.79
4199;BME280;2113;50.946;14.610;2023-07-28T08:38:29;51913.91;;;-141.55;71.03
4199;BME280;2113;50.946;14.610;2023-07-28T08:40:57;51921.88;;;-141.55;69.79
4199;BME280;2113;50.946;14.610;2023-07-28T08:43:26;51866.03;;;-141.55;69.63
4199;BME280;2113;50.946;14.610;2023-07-28T08:45:54;51858.06;;;-141.55;67.65
4199;BME280;2113;50.946;14.610;2023-07-28T08:48:23;51874.03;;;-141.55;65.94
4199;BME280;2113;50.946;14.610;2023-07-28T08:50:52;51862.06;;;-141.55;64.66
4199;BME280;2113;50.946;14.610;2023-07-28T08:53:21;51860.06;;;-141.55;62.73
4199;BME280;2113;50.946;14.610;2023-07-28T08:55:51;51780.31;;;-141.55;60.17
4199;BME280;2113;50.946;14.610;2023-07-28T08:58:21;51800.25;;;-141.55;59.83
4199;BME280;2113;50.946;14.610;2023-07-28T09:00:51;51744.41;;;-141.55;57.60
4199;BME280;2113;50.946;14.610;2023-07-28T09:03:20;51840.13;;;-141.55;60.93
4199;BME280;2113;50.946;14.610;2023-07-28T09:05:49;51842.13;;;-141.55;63.21
4199;BME280;2113;50.946;14.610;2023-07-28T09:08:18;51878.00;;;-141.55;65.32
4199;BME280;2113;50.946;14.610;2023-07-28T09:10:48;51868.03;;;-141.55;65.33
4199;BME280;2113;50.946;14.610;2023-07-28T09:13:18;51882.00;;;-141.55;64.79
4199;BME280;2113;50.946;14.610;2023-07-28T09:15:47;51913.91;;;-141.55;65.11
4199;BME280;2113;50.946;14.610;2023-07-28T09:18:17;51834.13;;;-141.55;63.21
4199;BME280;2113;50.946;14.610;2023-07-28T09:20:45;51756.38;;;-141.55;58.52
4199;BME280;2113;50.946;14.610;2023-07-28T09:23:14;51770.31;;;-141.55;56.87
4199;BME280;2113;50.946;14.610;2023-07-28T09:25:43;51736.44;;;-141.55;55.85
4199;BME280;2113;50.946;14.610;2023-07-28T09:28:12;51678.59;;;-141.55;52.71
4199;BME280;2113;50.946;14.610;2023-07-28T09:30:47;51702.53;;;-141.55;51.71
4199;BME280;2113;50.946;14.610;2023-07-28T09:33:29;51760.34;;;-141.55;53.86
4199;BME280;2113;50.946;14.610;2023-07-28T09:39:54;51810.22;;;-141.55;57.93
4199;BME280;2113;50.946;14.610;2023-07-28T09:42:22;51750.38;;;-141.55;54.75
4199;BME280;2113;50.946;14.610;2023-07-28T09:45:13;51754.38;;;-141.55;54.75
4199;BME280;2113;50.946;14.610;2023-07-28T09:48:02;51776.31;;;-141.55;55.95
4199;BME280;2113;50.946;14.610;2023-07-28T09:50:37;51806.22;;;-141.55;58.36
4199;BME280;2113;50.946;14.610;2023-07-28T09:53:09;51874.03;;;-141.55;60.61
4199;BME280;2113;50.946;14.610;2023-07-28T09:55:39;51882.00;;;-141.55;63.43
4199;BME280;2113;50.946;14.610;2023-07-28T09:58:10;51876.03;;;-141.55;64.12
4199;BME280;2113;50.946;14.610;2023-07-28T10:00:41;51872.03;;;-141.55;65.25
4199;BME280;2113;50.946;14.610;2023-07-28T10:03:11;51854.09;;;-141.55;64.97
4199;BME280;2113;50.946;14.610;2023-07-28T10:05:40;51848.09;;;-141.55;64.86
4199;BME280;2113;50.946;14.610;2023-07-28T10:08:10;51882.00;;;-141.55;65.28
4199;BME280;2113;50.946;14.610;2023-07-28T10:10:40;51862.06;;;-141.55;65.67
4199;BME280;2113;50.946;14.610;2023-07-28T10:13:19;51887.97;;;-141.55;66.13
4199;BME280;2113;50.946;14.610;2023-07-28T10:15:49;51915.91;;;-141.55;65.60
4199;BME280;2113;50.946;14.610;2023-07-28T10:18:20;51866.03;;;-141.55;63.00
4199;BME280;2113;50.946;14.610;2023-07-28T10:20:49;51834.13;;;-141.55;63.14
4199;BME280;2113;50.946;14.610;2023-07-28T10:23:21;51826.16;;;-141.55;61.10
4199;BME280;2113;50.946;14.610;2023-07-28T10:25:58;51842.13;;;-141.55;60.40
4199;BME280;2113;50.946;14.610;2023-07-28T10:28:29;51742.41;;;-141.55;57.57
4199;BME280;2113;50.946;14.610;2023-07-28T10:31:00;51758.38;;;-141.55;55.39
4199;BME280;2113;50.946;14.610;2023-07-28T10:33:31;51706.50;;;-141.55;54.07
4199;BME280;2113;50.946;14.610;2023-07-28T10:36:11;51708.50;;;-141.55;50.62
4199;BME280;2113;50.946;14.610;2023-07-28T10:38:40;51734.44;;;-141.55;51.88
4199;BME280;2113;50.946;14.610;2023-07-28T10:41:12;51766.34;;;-141.55;54.36
4199;BME280;2113;50.946;14.610;2023-07-28T10:43:42;51828.16;;;-141.55;56.25
4199;BME280;2113;50.946;14.610;2023-07-28T10:46:11;51862.06;;;-141.55;57.16
4199;BME280;2113;50.946;14.610;2023-07-28T10:48:46;51788.28;;;-141.55;56.24
4199;BME280;2113;50.946;14.610;2023-07-28T10:51:20;51792.25;;;-141.55;55.50
4199;BME280;2113;50.946;14.610;2023-07-28T10:53:50;51776.31;;;-141.55;54.59
4199;BME280;2113;50.946;14.610;2023-07-28T10:56:18;51810.22;;;-141.55;54.79
4199;BME280;2113;50.946;14.610;2023-07-28T10:58:47;51798.25;;;-141.55;54.44
4199;BME280;2113;50.946;14.610;2023-07-28T11:01:30;51766.34;;;-141.55;53.12
4199;BME280;2113;50.946;14.610;2023-07-28T11:04:08;51764.34;;;-141.55;53.09
4199;BME280;2113;50.946;14.610;2023-07-28T11:06:37;51772.31;;;-141.55;53.28
4199;BME280;2113;50.946;14.610;2023-07-28T11:09:06;51726.47;;;-141.55;51.36
4199;BME280;2113;50.946;14.610;2023-07-28T11:11:35;51698.53;;;-141.55;50.42
4199;BME280;2113;50.946;14.610;2023-07-28T11:14:05;51738.41;;;-141.55;51.10
4199;BME280;2113;50.946;14.610;2023-07-28T11:16:34;51742.41;;;-141.55;51.76
4199;BME280;2113;50.946;14.610;2023-07-28T11:19:09;51710.50;;;-141.55;51.02
4199;BME280;2113;50.946;14.610;2023-07-28T11:21:38;51734.44;;;-141.55;50.53
4199;BME280;2113;50.946;14.610;2023-07-28T11:24:07;51742.41;;;-141.55;50.13
4199;BME280;2113;50.946;14.610;2023-07-28T11:26:36;51756.38;;;-141.55;50.23
4199;BME280;2113;50.946;14.610;2023-07-28T11:29:05;51702.53;;;-141.55;48.43
4199;BME280;2113;50.946;14.610;2023-07-28T11:31:34;51664.63;;;-141.55;48.72
4199;BME280;2113;50.946;14.610;2023-07-28T11:34:02;51730.44;;;-141.55;49.24
4199;BME280;2113;50.946;14.610;2023-07-28T11:36:31;51722.47;;;-141.55;51.08
4199;BME280;2113;50.946;14.610;2023-07-28T11:39:00;51712.50;;;-141.55;48.59
4199;BME280;2113;50.946;14.610;2023-07-28T11:41:32;51696.53;;;-141.55;49.43
4199;BME280;2113;50.946;14.610;2023-07-28T11:44:01;51774.31;;;-141.55;51.53
4199;BME280;2113;50.946;14.610;2023-07-28T11:46:34;51706.50;;;-141.55;51.27
4199;BME280;2113;50.946;14.610;2023-07-28T11:49:10;51680.59;;;-141.55;48.79
4199;BME280;2113;50.946;14.610;2023-07-28T11:51:41;51678.59;;;-141.55;48.84
4199;BME280;2113;50.946;14.610;2023-07-28T11:54:11;51680.59;;;-141.55;47.35
4199;BME280;2113;50.946;14.610;2023-07-28T11:56:41;51706.50;;;-141.55;49.66
4199;BME280;2113;50.946;14.610;2023-07-28T11:59:10;51662.66;;;-141.55;47.99
4199;BME280;2113;50.946;14.610;2023-07-28T12:01:54;51762.34;;;-141.55;50.75
4199;BME280;2113;50.946;14.610;2023-07-28T12:04:26;51770.31;;;-141.55;52.06
4199;BME280;2113;50.946;14.610;2023-07-28T12:07:04;51770.31;;;-141.55;51.99
4199;BME280;2113;50.946;14.610;2023-07-28T12:09:47;51736.44;;;-141.55;50.37
4199;BME280;2113;50.946;14.610;2023-07-28T12:12:29;51730.44;;;-141.55;50.34
4199;BME280;2113;50.946;14.610;2023-07-28T12:15:25;51734.44;;;-141.55;50.92
4199;BME280;2113;50.946;14.610;2023-07-28T12:18:06;51752.38;;;-141.55;50.64
4199;BME280;2113;50.946;14.610;2023-07-28T12:20:39;51782.28;;;-141.55;51.10
4199;BME280;2113;50.946;14.610;2023-07-28T12:23:10;51728.44;;;-141.55;51.23
4199;BME280;2113;50.946;14.610;2023-07-28T12:25:41;51780.31;;;-141.55;51.65
4199;BME280;2113;50.946;14.610;2023-07-28T12:28:10;51770.31;;;-141.55;52.55
4199;BME280;2113;50.946;14.610;2023-07-28T12:30:42;51736.44;;;-141.55;51.23
4199;BME280;2113;50.946;14.610;2023-07-28T12:33:10;51698.53;;;-141.55;50.45
4199;BME280;2113;50.946;14.610;2023-07-28T12:35:41;51704.53;;;-141.55;50.04
4199;BME280;2113;50.946;14.610;2023-07-28T12:38:14;51736.44;;;-141.55;49.78
4199;BME280;2113;50.946;14.610;2023-07-28T12:40:45;51738.41;;;-141.55;52.33
4199;BME280;2113;50.946;14.610;2023-07-28T12:43:20;51730.44;;;-141.55;50.89
4199;BME280;2113;50.946;14.610;2023-07-28T12:45:51;51738.41;;;-141.55;49.73
4199;BME280;2113;50.946;14.610;2023-07-28T12:48:23;51700.53;;;-141.55;49.99
4199;BME280;2113;50.946;14.610;2023-07-28T12:50:51;51692.56;;;-141.55;48.81
4199;BME280;2113;50.946;14.610;2023-07-28T12:53:24;51700.53;;;-141.55;47.85
4199;BME280;2113;50.946;14.610;2023-07-28T12:55:52;51726.47;;;-141.55;49.18
4199;BME280;2113;50.946;14.610;2023-07-28T12:58:23;51710.50;;;-141.55;48.23
4199;BME280;2113;50.946;14.610;2023-07-28T13:00:54;51690.56;;;-141.55;48.15
4199;BME280;2113;50.946;14.610;2023-07-28T13:03:28;51668.63;;;-141.55;46.26
4199;BME280;2113;50.946;14.610;2023-07-28T13:06:02;51698.53;;;-141.55;46.64
4199;BME280;2113;50.946;14.610;2023-07-28T13:08:32;51710.50;;;-141.55;46.18
4199;BME280;2113;50.946;14.610;2023-07-28T13:11:03;51688.56;;;-141.55;45.05